Terminal Aerodrome Forecast
Issued by NWS

Current Version | Previous Version | Text Only | Print | Product List | Glossary On
Versions: 1 2 3 4 5 6 7 8 9 10 11 12 13 14 15 16 17
000
FTUS41 KPBZ 211139
TAFFKL
TAF
KFKL 211139Z 2112/2212 20012KT P6SM OVC080 WS020/22045KT
     FM211400 28012G22KT P6SM -SHRA OVC015
     FM211700 30010KT 5SM -SHRA OVC008
     FM212200 33008KT P6SM -SHRA OVC035
     FM220800 06010KT 3SM -FZRAPL OVC008=

USA.gov is the U.S. government's official web portal to all federal, state and local government web resources and services.